Time;durP1;ratioP1;P1;durP2;ratioP2;P2;SDS_P1;SDS_P2;PMS_P1;PMS_P2;Temp;Humidity;BMP_temperature;BMP_pressure;BME280_temperature;BME280_humidity;BME280_pressure;Samples;Min_cycle;Max_cycle;Signal;HPM_P1;HPM_P2
2021/10/21 00:01:01;;;;;;;9.50;4.95;;;;;;;;;;5035626;28;20409;-80
2021/10/21 00:03:27;;;;;;;6.95;4.72;;;;;;;;;;5053001;28;20125;-80
2021/10/21 00:05:53;;;;;;;7.45;4.90;;;;;;;;;;5053904;28;20035;-80
2021/10/21 00:08:19;;;;;;;5.18;4.07;;;;;;;;;;5054463;28;20100;-80
2021/10/21 00:10:48;;;;;;;5.97;4.07;;;;;;;;;;5054614;28;20033;-80
2021/10/21 00:13:14;;;;;;;4.93;3.47;;;;;;;;;;5053836;28;20389;-78
2021/10/21 00:15:40;;;;;;;4.80;3.10;;;;;;;;;;5059052;28;20032;-79
2021/10/21 00:18:06;;;;;;;4.20;3.15;;;;;;;;;;5074973;28;20477;-80
2021/10/21 00:20:32;;;;;;;4.40;3.30;;;;;;;;;;5071291;28;20028;-80
2021/10/21 00:22:58;;;;;;;3.85;2.78;;;;;;;;;;5054445;28;20481;-80
2021/10/21 00:25:24;;;;;;;4.63;2.80;;;;;;;;;;5037662;28;20078;-83
2021/10/21 00:27:50;;;;;;;3.95;2.75;;;;;;;;;;5057093;28;20025;-83
2021/10/21 00:30:16;;;;;;;4.25;2.85;;;;;;;;;;5056877;28;20025;-83
2021/10/21 00:32:42;;;;;;;3.97;2.53;;;;;;;;;;5057098;28;20036;-83
2021/10/21 00:35:09;;;;;;;3.08;2.45;;;;;;;;;;5056974;28;20087;-83
2021/10/21 00:37:35;;;;;;;3.30;2.33;;;;;;;;;;5057523;28;20039;-83
2021/10/21 00:40:01;;;;;;;4.78;2.40;;;;;;;;;;5060404;28;20052;-82
2021/10/21 00:42:27;;;;;;;3.05;2.38;;;;;;;;;;5065285;28;20037;-81
2021/10/21 00:44:53;;;;;;;2.35;2.00;;;;;;;;;;5061203;28;20389;-83
2021/10/21 00:47:20;;;;;;;3.13;2.28;;;;;;;;;;5056469;28;20021;-83
2021/10/21 00:49:46;;;;;;;4.43;2.22;;;;;;;;;;5055549;28;20501;-82
2021/10/21 00:52:12;;;;;;;2.53;1.60;;;;;;;;;;5055796;28;20055;-81
2021/10/21 00:54:38;;;;;;;3.05;1.70;;;;;;;;;;5055760;28;20037;-81
2021/10/21 00:57:06;;;;;;;2.83;1.58;;;;;;;;;;5071882;28;20054;-81
2021/10/21 00:59:33;;;;;;;3.95;1.73;;;;;;;;;;5070521;28;20014;-78
2021/10/21 01:02:00;;;;;;;1.95;1.50;;;;;;;;;;5069157;28;20021;-82
2021/10/21 01:04:26;;;;;;;3.15;1.50;;;;;;;;;;5065940;28;20021;-81
2021/10/21 01:06:53;;;;;;;2.20;1.90;;;;;;;;;;5058002;28;20036;-82
2021/10/21 01:09:19;;;;;;;4.50;1.88;;;;;;;;;;5053267;28;20049;-81
2021/10/21 01:11:45;;;;;;;3.30;2.15;;;;;;;;;;5053601;28;20029;-82
2021/10/21 01:14:11;;;;;;;2.88;2.17;;;;;;;;;;5053836;28;20073;-82
2021/10/21 01:16:39;;;;;;;2.45;1.80;;;;;;;;;;5054366;28;20029;-80
2021/10/21 01:19:14;;;;;;;3.53;2.10;;;;;;;;;;5053819;28;20028;-81
2021/10/21 01:21:40;;;;;;;2.80;2.05;;;;;;;;;;5054408;28;20021;-83
2021/10/21 01:24:06;;;;;;;3.28;2.03;;;;;;;;;;5055190;28;20144;-83
2021/10/21 01:26:31;;;;;;;2.92;2.10;;;;;;;;;;5054310;28;20049;-82
2021/10/21 01:28:57;;;;;;;2.85;2.15;;;;;;;;;;5055196;28;20052;-82
2021/10/21 01:31:23;;;;;;;2.50;2.10;;;;;;;;;;5054295;28;20021;-82
2021/10/21 01:33:49;;;;;;;2.92;2.05;;;;;;;;;;5057425;28;20048;-81
2021/10/21 01:36:15;;;;;;;2.70;2.05;;;;;;;;;;5056620;28;20029;-83
2021/10/21 01:38:42;;;;;;;3.22;2.33;;;;;;;;;;5052980;28;20040;-82
2021/10/21 01:41:09;;;;;;;3.67;2.63;;;;;;;;;;5052343;28;20025;-82
2021/10/21 01:43:41;;;;;;;3.80;2.33;;;;;;;;;;5053256;28;20032;-82
2021/10/21 01:46:08;;;;;;;2.80;2.30;;;;;;;;;;5053205;28;20018;-83
2021/10/21 01:48:33;;;;;;;5.50;2.40;;;;;;;;;;5051442;28;20026;-82
2021/10/21 01:50:59;;;;;;;3.22;2.28;;;;;;;;;;5053275;28;20094;-82
2021/10/21 01:53:25;;;;;;;4.68;2.63;;;;;;;;;;5054284;28;20064;-81
2021/10/21 01:55:51;;;;;;;2.75;2.00;;;;;;;;;;5053398;28;20136;-81
2021/10/21 01:58:18;;;;;;;4.82;2.35;;;;;;;;;;5055467;28;20119;-82
2021/10/21 02:00:44;;;;;;;2.65;2.00;;;;;;;;;;5054356;28;20031;-82
2021/10/21 02:03:09;;;;;;;2.42;1.70;;;;;;;;;;5055058;28;20104;-83
2021/10/21 02:05:36;;;;;;;3.53;1.98;;;;;;;;;;5057792;28;20033;-82
2021/10/21 02:08:02;;;;;;;4.45;1.50;;;;;;;;;;5057090;28;20078;-82
2021/10/21 02:10:28;;;;;;;2.20;1.00;;;;;;;;;;5057331;28;20112;-84
2021/10/21 02:12:54;;;;;;;1.85;1.15;;;;;;;;;;5057066;28;20037;-83
2021/10/21 02:15:20;;;;;;;1.23;0.90;;;;;;;;;;5057250;28;20032;-83
2021/10/21 02:17:46;;;;;;;1.40;0.90;;;;;;;;;;5057758;28;20021;-84
2021/10/21 02:20:13;;;;;;;1.00;0.68;;;;;;;;;;5056320;28;20442;-82
2021/10/21 02:22:39;;;;;;;0.90;0.73;;;;;;;;;;5057718;28;20035;-82
2021/10/21 02:25:06;;;;;;;2.03;0.82;;;;;;;;;;5058209;28;20060;-83
2021/10/21 02:27:32;;;;;;;0.93;0.73;;;;;;;;;;5057811;28;20033;-82
2021/10/21 02:29:58;;;;;;;0.90;0.70;;;;;;;;;;5061733;28;20025;-80
2021/10/21 02:32:24;;;;;;;2.65;0.90;;;;;;;;;;5070793;28;20060;-80
2021/10/21 02:34:50;;;;;;;0.90;0.70;;;;;;;;;;5071096;28;20090;-81
2021/10/21 02:37:16;;;;;;;1.20;0.88;;;;;;;;;;5063340;28;20037;-82
2021/10/21 02:39:43;;;;;;;1.88;1.10;;;;;;;;;;5056856;28;20025;-83
2021/10/21 02:42:09;;;;;;;4.55;1.50;;;;;;;;;;5058450;28;20052;-83
2021/10/21 02:44:35;;;;;;;1.05;0.90;;;;;;;;;;5056850;28;20060;-82
2021/10/21 02:47:01;;;;;;;3.28;1.10;;;;;;;;;;5058701;28;20029;-84
2021/10/21 02:49:27;;;;;;;3.33;0.85;;;;;;;;;;5058985;28;20045;-83
2021/10/21 02:51:53;;;;;;;1.35;0.80;;;;;;;;;;5058049;28;20036;-83
2021/10/21 02:54:19;;;;;;;2.03;1.58;;;;;;;;;;5056643;28;20452;-82
2021/10/21 02:56:45;;;;;;;3.75;1.10;;;;;;;;;;5058753;28;20032;-84
2021/10/21 02:59:11;;;;;;;2.45;0.90;;;;;;;;;;5058301;28;20028;-84
2021/10/21 03:01:37;;;;;;;1.42;0.98;;;;;;;;;;5056501;28;20505;-83
2021/10/21 03:04:03;;;;;;;1.40;1.00;;;;;;;;;;5058149;28;20031;-84
2021/10/21 03:06:29;;;;;;;4.43;1.02;;;;;;;;;;5057862;28;20033;-84
2021/10/21 03:08:55;;;;;;;1.77;0.90;;;;;;;;;;5056635;28;20024;-83
2021/10/21 03:11:21;;;;;;;3.45;1.23;;;;;;;;;;5055624;28;20056;-82
2021/10/21 03:13:47;;;;;;;3.88;1.30;;;;;;;;;;5056711;28;20497;-84
2021/10/21 03:16:13;;;;;;;1.52;0.93;;;;;;;;;;5066053;28;20041;-84
2021/10/21 03:18:39;;;;;;;1.70;0.77;;;;;;;;;;5077306;28;20031;-83
2021/10/21 03:21:05;;;;;;;1.58;0.95;;;;;;;;;;5075945;28;20100;-84
2021/10/21 03:23:31;;;;;;;1.98;0.80;;;;;;;;;;5075468;28;20095;-83
2021/10/21 03:25:57;;;;;;;6.25;1.10;;;;;;;;;;5077760;28;20115;-83
2021/10/21 03:28:23;;;;;;;6.20;0.90;;;;;;;;;;5077212;28;20028;-83
2021/10/21 03:30:49;;;;;;;1.25;0.60;;;;;;;;;;5075294;28;20028;-83
2021/10/21 03:33:15;;;;;;;2.42;0.70;;;;;;;;;;5075540;28;20092;-83
2021/10/21 03:35:41;;;;;;;2.72;0.80;;;;;;;;;;5059820;28;20060;-82
2021/10/21 03:38:08;;;;;;;2.25;0.68;;;;;;;;;;5057354;28;20036;-84
2021/10/21 03:40:34;;;;;;;2.95;0.50;;;;;;;;;;5055188;28;20029;-82
2021/10/21 03:43:00;;;;;;;2.58;0.50;;;;;;;;;;5055928;28;20021;-84
2021/10/21 03:45:26;;;;;;;3.97;0.30;;;;;;;;;;5055696;28;20116;-84
2021/10/21 03:47:52;;;;;;;3.65;0.40;;;;;;;;;;5057388;28;20055;-83
2021/10/21 03:50:18;;;;;;;0.73;0.20;;;;;;;;;;5056023;28;20112;-84
2021/10/21 03:52:44;;;;;;;8.50;0.50;;;;;;;;;;5056366;28;20491;-84
2021/10/21 03:55:11;;;;;;;3.85;0.55;;;;;;;;;;5056901;28;20111;-83
2021/10/21 03:57:37;;;;;;;2.22;0.22;;;;;;;;;;5056618;28;20039;-82
2021/10/21 04:00:04;;;;;;;7.82;0.50;;;;;;;;;;5055430;28;20025;-81
2021/10/21 04:02:30;;;;;;;2.50;0.30;;;;;;;;;;5055338;28;20021;-81
2021/10/21 04:04:56;;;;;;;4.13;0.40;;;;;;;;;;5057049;28;20025;-82
2021/10/21 04:07:22;;;;;;;1.83;0.40;;;;;;;;;;5056163;28;20378;-81
2021/10/21 04:09:48;;;;;;;4.05;0.65;;;;;;;;;;5056055;28;20065;-81
2021/10/21 04:12:14;;;;;;;9.85;0.80;;;;;;;;;;5057261;28;20029;-83
2021/10/21 04:14:41;;;;;;;8.30;1.00;;;;;;;;;;5055583;28;20021;-81
2021/10/21 04:17:07;;;;;;;5.75;0.90;;;;;;;;;;5057215;28;20045;-83
2021/10/21 04:19:33;;;;;;;9.63;1.13;;;;;;;;;;5037418;28;20482;-82
2021/10/21 04:22:01;;;;;;;7.97;0.90;;;;;;;;;;5053688;28;20029;-81
2021/10/21 04:24:27;;;;;;;15.95;1.40;;;;;;;;;;5051950;28;20505;-83
2021/10/21 04:26:53;;;;;;;7.65;1.00;;;;;;;;;;5054524;28;20025;-84
2021/10/21 04:29:19;;;;;;;7.88;1.02;;;;;;;;;;5054753;28;20084;-84
2021/10/21 04:31:45;;;;;;;10.82;1.20;;;;;;;;;;5053226;28;20037;-83
2021/10/21 04:34:12;;;;;;;10.65;1.10;;;;;;;;;;5054642;28;20379;-83
2021/10/21 04:36:39;;;;;;;7.20;0.90;;;;;;;;;;5052162;28;20029;-83
2021/10/21 04:39:05;;;;;;;6.30;1.20;;;;;;;;;;5056538;28;20031;-83
2021/10/21 04:41:31;;;;;;;4.00;1.00;;;;;;;;;;5055589;28;20465;-83
2021/10/21 04:43:57;;;;;;;3.70;0.95;;;;;;;;;;5043943;28;20072;-82
2021/10/21 04:46:23;;;;;;;11.93;1.23;;;;;;;;;;5062447;28;20139;-82
2021/10/21 04:48:49;;;;;;;6.07;1.10;;;;;;;;;;5058725;28;20542;-81
2021/10/21 04:51:15;;;;;;;6.32;1.30;;;;;;;;;;5051655;28;20107;-82
2021/10/21 04:53:41;;;;;;;8.60;0.88;;;;;;;;;;5051219;28;20057;-80
2021/10/21 04:56:08;;;;;;;8.25;1.10;;;;;;;;;;5035328;28;20049;-80
2021/10/21 04:58:34;;;;;;;8.95;1.55;;;;;;;;;;5053324;28;20021;-81
2021/10/21 05:01:00;;;;;;;6.50;1.30;;;;;;;;;;5061144;28;20017;-79
2021/10/21 05:03:26;;;;;;;7.07;1.10;;;;;;;;;;5076829;28;20055;-77
2021/10/21 05:05:52;;;;;;;8.68;1.23;;;;;;;;;;5064511;28;20037;-83
2021/10/21 05:08:18;;;;;;;5.28;0.80;;;;;;;;;;5057052;28;20037;-84
2021/10/21 05:10:44;;;;;;;8.40;1.35;;;;;;;;;;5057380;28;20025;-83
2021/10/21 05:13:12;;;;;;;5.45;1.05;;;;;;;;;;5062747;28;20025;-82
2021/10/21 05:15:40;;;;;;;7.68;1.13;;;;;;;;;;5055175;28;20021;-78
2021/10/21 05:18:06;;;;;;;7.57;0.90;;;;;;;;;;5055477;28;20021;-81
2021/10/21 05:20:32;;;;;;;7.80;1.13;;;;;;;;;;5055531;28;20033;-81
2021/10/21 05:22:58;;;;;;;10.13;1.60;;;;;;;;;;5055916;28;20103;-81
2021/10/21 05:25:24;;;;;;;12.20;1.25;;;;;;;;;;5054764;28;20142;-81
2021/10/21 05:27:50;;;;;;;7.45;1.50;;;;;;;;;;5055899;28;20033;-83
2021/10/21 05:30:16;;;;;;;4.97;1.30;;;;;;;;;;5053661;28;20029;-81
2021/10/21 05:32:42;;;;;;;7.97;1.42;;;;;;;;;;5057220;28;20059;-83
2021/10/21 05:35:08;;;;;;;6.32;1.00;;;;;;;;;;5055183;28;20144;-82
2021/10/21 05:37:35;;;;;;;7.93;1.25;;;;;;;;;;5055803;28;20112;-83
2021/10/21 05:40:01;;;;;;;7.07;0.93;;;;;;;;;;5057653;28;20107;-82
2021/10/21 05:42:28;;;;;;;13.07;1.38;;;;;;;;;;5038390;28;20056;-83
2021/10/21 05:44:54;;;;;;;26.45;1.92;;;;;;;;;;5053352;28;20036;-81
2021/10/21 05:47:20;;;;;;;7.60;1.30;;;;;;;;;;5054857;28;20029;-82
2021/10/21 05:49:46;;;;;;;11.05;2.13;;;;;;;;;;5058022;28;20036;-83
2021/10/21 05:52:12;;;;;;;11.25;1.83;;;;;;;;;;5041331;28;20103;-82
2021/10/21 05:54:38;;;;;;;7.63;1.02;;;;;;;;;;5048734;28;20497;-83
2021/10/21 05:57:04;;;;;;;6.28;1.10;;;;;;;;;;5058874;28;20108;-83
2021/10/21 05:59:30;;;;;;;7.85;1.20;;;;;;;;;;5058344;28;20052;-81
2021/10/21 06:01:56;;;;;;;7.68;1.60;;;;;;;;;;5053826;28;20157;-82
2021/10/21 06:04:22;;;;;;;7.15;1.30;;;;;;;;;;5068133;28;20060;-84
2021/10/21 06:06:48;;;;;;;8.20;1.20;;;;;;;;;;5057668;28;20033;-83
2021/10/21 06:09:20;;;;;;;6.05;1.00;;;;;;;;;;5057764;28;20078;-80
2021/10/21 06:11:46;;;;;;;7.90;0.90;;;;;;;;;;5057357;28;20465;-83
2021/10/21 06:14:12;;;;;;;2.95;0.82;;;;;;;;;;5058067;28;20040;-82
2021/10/21 06:16:38;;;;;;;6.80;0.75;;;;;;;;;;5058582;28;20033;-82
2021/10/21 06:19:04;;;;;;;9.80;0.98;;;;;;;;;;5041161;28;20486;-83
2021/10/21 06:21:30;;;;;;;6.95;1.17;;;;;;;;;;5026161;28;20025;-81
2021/10/21 06:23:56;;;;;;;12.88;1.05;;;;;;;;;;5066696;28;20028;-83
2021/10/21 06:26:22;;;;;;;10.77;0.95;;;;;;;;;;5061023;28;20093;-83
2021/10/21 06:28:51;;;;;;;7.28;0.93;;;;;;;;;;5057994;28;20069;-84
2021/10/21 06:31:18;;;;;;;13.38;1.35;;;;;;;;;;5071703;22;20493;-81
2021/10/21 06:33:45;;;;;;;9.65;1.00;;;;;;;;;;5040498;28;20033;-81
2021/10/21 06:36:11;;;;;;;5.13;0.70;;;;;;;;;;5018326;28;20021;-83
2021/10/21 06:38:37;;;;;;;3.88;0.65;;;;;;;;;;5024999;28;20148;-82
2021/10/21 06:41:03;;;;;;;7.50;0.88;;;;;;;;;;5041425;28;20025;-84
2021/10/21 06:43:29;;;;;;;3.42;1.00;;;;;;;;;;5039463;28;20022;-83
2021/10/21 06:45:55;;;;;;;6.00;1.00;;;;;;;;;;5031491;28;20037;-81
2021/10/21 06:48:22;;;;;;;3.50;0.68;;;;;;;;;;5041599;28;20056;-83
2021/10/21 06:50:48;;;;;;;4.13;0.63;;;;;;;;;;5054406;28;20034;-83
2021/10/21 06:53:14;;;;;;;7.70;0.75;;;;;;;;;;5049510;28;20095;-82
2021/10/21 06:55:40;;;;;;;6.45;0.75;;;;;;;;;;5059361;28;20087;-84
2021/10/21 06:58:06;;;;;;;6.40;1.20;;;;;;;;;;5074596;28;20029;-82
2021/10/21 07:00:37;;;;;;;6.80;1.33;;;;;;;;;;5049193;28;20029;-83
2021/10/21 07:03:03;;;;;;;4.90;0.47;;;;;;;;;;5055407;28;20018;-84
2021/10/21 07:05:35;;;;;;;5.55;1.00;;;;;;;;;;5054648;28;20021;-82
2021/10/21 07:08:01;;;;;;;13.35;1.00;;;;;;;;;;5041394;28;20028;-85
2021/10/21 07:10:27;;;;;;;6.05;0.77;;;;;;;;;;5056236;28;20025;-83
2021/10/21 07:12:53;;;;;;;3.05;0.60;;;;;;;;;;5039894;28;20108;-86
2021/10/21 07:15:19;;;;;;;5.07;0.63;;;;;;;;;;5037353;28;20068;-83
2021/10/21 07:17:45;;;;;;;3.03;0.38;;;;;;;;;;5021083;28;20068;-87
2021/10/21 07:20:14;;;;;;;4.20;0.50;;;;;;;;;;5033801;28;20029;-78
2021/10/21 07:22:41;;;;;;;9.48;0.60;;;;;;;;;;5034985;28;20029;-78
2021/10/21 07:25:07;;;;;;;4.63;0.90;;;;;;;;;;5034954;28;20155;-79
2021/10/21 07:27:34;;;;;;;4.07;0.45;;;;;;;;;;5050328;28;20037;-78
2021/10/21 07:29:59;;;;;;;3.15;0.45;;;;;;;;;;5034785;28;20021;-82
2021/10/21 07:32:25;;;;;;;4.15;0.50;;;;;;;;;;5036460;28;20032;-79
2021/10/21 07:34:51;;;;;;;11.38;0.63;;;;;;;;;;5036862;28;20029;-81
2021/10/21 07:37:18;;;;;;;1.80;0.40;;;;;;;;;;5035065;28;20053;-81
2021/10/21 07:39:44;;;;;;;1.98;0.40;;;;;;;;;;5050338;28;20025;-83
2021/10/21 07:42:11;;;;;;;2.38;0.40;;;;;;;;;;5035546;28;20025;-81
2021/10/21 07:44:38;;;;;;;5.18;0.70;;;;;;;;;;5051296;28;20030;-81
2021/10/21 07:47:04;;;;;;;3.58;0.25;;;;;;;;;;5036869;28;20045;-81
2021/10/21 07:49:30;;;;;;;5.50;0.20;;;;;;;;;;5035788;28;20600;-83
2021/10/21 07:51:57;;;;;;;1.42;0.22;;;;;;;;;;5036971;28;20113;-80
2021/10/21 07:54:32;;;;;;;3.08;0.30;;;;;;;;;;5053377;28;20116;-82
2021/10/21 07:56:58;;;;;;;5.32;0.40;;;;;;;;;;5056879;28;20025;-83
2021/10/21 07:59:26;;;;;;;3.28;0.17;;;;;;;;;;5040123;28;20100;-82
2021/10/21 08:01:52;;;;;;;5.35;0.40;;;;;;;;;;5063351;28;20085;-80
2021/10/21 08:04:18;;;;;;;3.83;0.50;;;;;;;;;;5051093;28;20021;-82
2021/10/21 08:06:44;;;;;;;5.30;0.30;;;;;;;;;;5049027;28;20551;-81
2021/10/21 08:09:11;;;;;;;2.42;0.57;;;;;;;;;;5036661;28;20086;-83
2021/10/21 08:11:38;;;;;;;1.02;0.30;;;;;;;;;;5051782;28;20021;-82
2021/10/21 08:14:06;;;;;;;2.10;0.40;;;;;;;;;;5034795;28;20068;-84
2021/10/21 08:16:32;;;;;;;2.45;0.50;;;;;;;;;;5051054;28;20034;-83
2021/10/21 08:18:58;;;;;;;4.00;0.50;;;;;;;;;;5035621;28;20040;-83
2021/10/21 08:21:24;;;;;;;3.05;0.35;;;;;;;;;;5033694;28;20113;-82
2021/10/21 08:23:54;;;;;;;4.80;0.63;;;;;;;;;;5035450;28;20057;-82
2021/10/21 08:26:21;;;;;;;0.90;0.20;;;;;;;;;;5036338;28;20063;-82
2021/10/21 08:28:47;;;;;;;7.35;0.60;;;;;;;;;;5034238;28;20026;-83
2021/10/21 08:31:14;;;;;;;4.28;0.50;;;;;;;;;;5034099;28;20390;-80
2021/10/21 08:33:40;;;;;;;1.55;0.30;;;;;;;;;;5034201;28;20033;-84
2021/10/21 08:36:10;;;;;;;3.40;0.63;;;;;;;;;;5035365;28;20121;-83
2021/10/21 08:38:36;;;;;;;1.77;0.47;;;;;;;;;;5035883;28;20040;-82
2021/10/21 08:41:02;;;;;;;3.00;0.40;;;;;;;;;;5036054;28;20030;-84
2021/10/21 08:43:28;;;;;;;4.45;0.50;;;;;;;;;;5037367;28;20026;-84
2021/10/21 08:45:56;;;;;;;1.98;0.30;;;;;;;;;;5041574;28;20105;-82
2021/10/21 08:48:22;;;;;;;1.70;0.17;;;;;;;;;;5052841;28;20029;-82
2021/10/21 08:50:48;;;;;;;2.92;0.50;;;;;;;;;;5043453;28;20018;-80
2021/10/21 08:53:14;;;;;;;2.00;0.40;;;;;;;;;;5056646;28;20036;-79
2021/10/21 08:55:41;;;;;;;0.77;0.28;;;;;;;;;;5071673;28;20018;-78
2021/10/21 08:58:07;;;;;;;0.63;0.10;;;;;;;;;;5069548;28;20045;-79
2021/10/21 09:00:38;;;;;;;5.40;0.45;;;;;;;;;;5050946;28;20081;-81
2021/10/21 09:03:06;;;;;;;5.47;0.30;;;;;;;;;;5043503;28;20102;-81
2021/10/21 09:05:56;;;;;;;0.93;0.20;;;;;;;;;;5057127;28;20021;-83
2021/10/21 09:08:20;;;;;;;2.90;0.40;;;;;;;;;;5037965;28;20052;-81
2021/10/21 09:10:47;;;;;;;2.15;0.38;;;;;;;;;;5037583;28;20033;-81
2021/10/21 09:13:20;;;;;;;1.35;0.20;;;;;;;;;;5053466;28;20033;-79
2021/10/21 09:15:50;;;;;;;2.35;0.30;;;;;;;;;;5051957;28;20025;-80
2021/10/21 09:18:17;;;;;;;4.25;0.40;;;;;;;;;;5060711;28;20509;-81
2021/10/21 09:20:44;;;;;;;2.28;0.22;;;;;;;;;;5056675;28;20128;-79
2021/10/21 09:23:15;;;;;;;1.55;0.20;;;;;;;;;;5072632;28;20097;-81
2021/10/21 09:25:41;;;;;;;1.27;0.35;;;;;;;;;;5056900;28;20013;-79
2021/10/21 09:28:18;;;;;;;1.08;0.30;;;;;;;;;;5056955;28;20053;-80
2021/10/21 09:30:56;;;;;;;5.45;0.30;;;;;;;;;;5056747;28;20447;-80
2021/10/21 09:33:23;;;;;;;1.38;0.40;;;;;;;;;;5062484;28;20085;-81
2021/10/21 09:35:54;;;;;;;2.03;0.35;;;;;;;;;;5077881;28;20644;-79
2021/10/21 09:38:20;;;;;;;1.85;0.43;;;;;;;;;;5064292;28;20055;-81
2021/10/21 09:40:46;;;;;;;2.72;0.40;;;;;;;;;;5071818;28;20025;-81
2021/10/21 09:43:15;;;;;;;3.22;0.50;;;;;;;;;;5072558;28;20033;-81
2021/10/21 09:45:43;;;;;;;1.17;0.20;;;;;;;;;;5066060;28;20075;-82
2021/10/21 09:48:09;;;;;;;1.88;0.47;;;;;;;;;;5036645;28;20049;-82
2021/10/21 09:50:45;;;;;;;3.78;0.40;;;;;;;;;;5037872;28;20049;-82
2021/10/21 09:53:14;;;;;;;4.20;1.30;;;;;;;;;;5038904;28;20022;-82
2021/10/21 09:55:41;;;;;;;4.13;0.40;;;;;;;;;;5037864;28;20052;-82
2021/10/21 09:58:09;;;;;;;6.20;0.85;;;;;;;;;;5039536;28;20040;-82
2021/10/21 10:00:36;;;;;;;3.50;0.60;;;;;;;;;;5020498;28;20163;-82
2021/10/21 10:03:13;;;;;;;1.90;0.73;;;;;;;;;;5040143;28;20044;-82
2021/10/21 10:05:44;;;;;;;1.50;0.28;;;;;;;;;;5045953;28;20144;-84
2021/10/21 10:08:10;;;;;;;2.15;0.35;;;;;;;;;;5047697;28;20033;-82
2021/10/21 10:10:46;;;;;;;3.10;0.80;;;;;;;;;;5036317;28;20029;-83
2021/10/21 10:13:12;;;;;;;3.38;0.45;;;;;;;;;;5038643;28;20033;-83
2021/10/21 10:15:39;;;;;;;2.72;0.50;;;;;;;;;;5037948;28;20470;-82
2021/10/21 10:18:06;;;;;;;2.10;0.50;;;;;;;;;;5023900;28;20056;-83
2021/10/21 10:20:32;;;;;;;6.63;0.50;;;;;;;;;;5022939;28;20405;-83
2021/10/21 10:23:00;;;;;;;2.55;0.73;;;;;;;;;;5020072;28;20025;-83
2021/10/21 10:25:26;;;;;;;3.15;0.57;;;;;;;;;;5016154;28;20018;-81
2021/10/21 10:27:53;;;;;;;3.00;0.70;;;;;;;;;;5016949;28;20029;-80
2021/10/21 10:30:38;;;;;;;4.10;0.68;;;;;;;;;;5015365;28;20482;-82
2021/10/21 10:33:04;;;;;;;2.22;0.60;;;;;;;;;;5017408;28;20040;-81
2021/10/21 10:35:31;;;;;;;3.50;0.50;;;;;;;;;;4999644;28;20080;-81
2021/10/21 10:37:59;;;;;;;5.85;0.60;;;;;;;;;;5017402;28;20026;-81
2021/10/21 10:40:44;;;;;;;3.38;0.43;;;;;;;;;;5016018;28;20026;-79
2021/10/21 10:43:11;;;;;;;3.88;0.57;;;;;;;;;;5016732;28;20061;-81
2021/10/21 10:45:44;;;;;;;5.03;0.65;;;;;;;;;;5021907;28;20117;-80
2021/10/21 10:48:10;;;;;;;4.20;0.73;;;;;;;;;;5034022;28;20123;-81
2021/10/21 10:50:42;;;;;;;4.18;0.80;;;;;;;;;;5033696;28;20406;-80
2021/10/21 10:53:09;;;;;;;2.83;0.40;;;;;;;;;;5035681;28;20555;-82
2021/10/21 10:55:41;;;;;;;1.67;1.08;;;;;;;;;;5035735;28;20109;-81
2021/10/21 10:58:10;;;;;;;3.47;0.88;;;;;;;;;;5035651;28;20024;-80
2021/10/21 11:00:41;;;;;;;5.05;0.98;;;;;;;;;;5035102;28;20032;-81
2021/10/21 11:03:07;;;;;;;4.10;0.73;;;;;;;;;;5035865;28;20386;-81
2021/10/21 11:05:46;;;;;;;5.47;0.82;;;;;;;;;;5034365;28;20117;-81
2021/10/21 11:08:13;;;;;;;6.60;0.90;;;;;;;;;;5036545;28;20018;-82
2021/10/21 11:10:40;;;;;;;5.03;0.57;;;;;;;;;;5034135;28;20034;-82
2021/10/21 11:13:24;;;;;;;5.25;0.55;;;;;;;;;;5035814;28;20021;-82
2021/10/21 11:15:52;;;;;;;5.18;0.88;;;;;;;;;;5035032;28;20041;-81
2021/10/21 11:18:41;;;;;;;14.02;0.70;;;;;;;;;;5037049;28;20025;-81
2021/10/21 11:21:07;;;;;;;4.53;0.88;;;;;;;;;;5036404;28;20032;-82
2021/10/21 11:23:34;;;;;;;6.00;0.95;;;;;;;;;;5037320;28;20032;-82
2021/10/21 11:26:03;;;;;;;5.53;0.75;;;;;;;;;;5036469;28;20021;-81
2021/10/21 11:28:31;;;;;;;4.97;0.80;;;;;;;;;;5053282;28;20039;-82
2021/10/21 11:30:57;;;;;;;3.75;0.70;;;;;;;;;;5037866;28;20029;-81
2021/10/21 11:33:23;;;;;;;6.35;0.52;;;;;;;;;;5036720;28;20044;-82
2021/10/21 11:35:55;;;;;;;4.20;0.75;;;;;;;;;;5036080;28;20401;-81
2021/10/21 11:38:21;;;;;;;3.20;0.88;;;;;;;;;;5036168;28;20036;-81
2021/10/21 11:40:47;;;;;;;5.57;0.65;;;;;;;;;;5050668;28;20083;-81
2021/10/21 11:43:20;;;;;;;3.17;0.73;;;;;;;;;;5052081;28;20021;-81
2021/10/21 11:45:53;;;;;;;3.53;0.70;;;;;;;;;;5035765;28;20517;-80
2021/10/21 11:48:20;;;;;;;3.08;0.55;;;;;;;;;;5035961;28;20028;-80
2021/10/21 11:50:51;;;;;;;6.78;0.80;;;;;;;;;;5018082;28;20139;-80
2021/10/21 11:53:18;;;;;;;3.80;0.77;;;;;;;;;;5033795;28;20035;-82
2021/10/21 11:55:45;;;;;;;3.70;0.50;;;;;;;;;;5034641;28;20048;-81
2021/10/21 11:58:11;;;;;;;4.47;0.70;;;;;;;;;;5034041;28;20034;-80
2021/10/21 12:00:37;;;;;;;6.00;0.88;;;;;;;;;;5034633;28;20283;-80
2021/10/21 12:03:04;;;;;;;4.13;0.60;;;;;;;;;;5035660;28;20026;-80
2021/10/21 12:05:31;;;;;;;6.60;0.93;;;;;;;;;;5036916;28;20103;-81
2021/10/21 12:07:58;;;;;;;4.15;0.63;;;;;;;;;;5058008;28;20725;-85
2021/10/21 12:10:28;;;;;;;2.80;0.45;;;;;;;;;;5061469;28;20043;-81
2021/10/21 12:12:55;;;;;;;5.32;0.73;;;;;;;;;;5066565;28;20017;-79
2021/10/21 12:15:22;;;;;;;6.43;0.80;;;;;;;;;;5062408;28;20103;-80
2021/10/21 12:17:49;;;;;;;3.38;0.75;;;;;;;;;;5048202;28;20035;-81
2021/10/21 12:20:29;;;;;;;4.93;0.77;;;;;;;;;;5060781;28;20030;-84
2021/10/21 12:22:55;;;;;;;3.35;0.70;;;;;;;;;;5038372;28;20366;-83
2021/10/21 12:25:31;;;;;;;4.57;0.73;;;;;;;;;;5051083;28;20033;-81
2021/10/21 12:28:01;;;;;;;3.47;0.50;;;;;;;;;;5051678;28;20025;-83
2021/10/21 12:30:27;;;;;;;4.57;1.13;;;;;;;;;;5029385;28;20026;-85
2021/10/21 12:33:10;;;;;;;5.53;0.95;;;;;;;;;;5041266;28;20030;-84
2021/10/21 12:35:37;;;;;;;3.20;0.60;;;;;;;;;;5035053;28;20092;-83
2021/10/21 12:38:09;;;;;;;3.05;0.75;;;;;;;;;;5051650;28;20068;-83
2021/10/21 12:40:35;;;;;;;;;;;;;;;;;;5037108;28;20028;-82
2021/10/21 12:43:15;;;;;;;2.92;0.60;;;;;;;;;;5052556;28;19905;-82
2021/10/21 12:45:41;;;;;;;3.30;0.70;;;;;;;;;;5037501;28;20033;-84
2021/10/21 12:48:20;;;;;;;3.10;0.70;;;;;;;;;;5035174;28;20021;-82
2021/10/21 12:50:46;;;;;;;5.45;0.50;;;;;;;;;;5036470;28;20026;-82
2021/10/21 12:53:13;;;;;;;2.80;0.52;;;;;;;;;;5038247;28;20079;-82
2021/10/21 12:55:39;;;;;;;3.58;0.50;;;;;;;;;;5022396;28;20030;-83
2021/10/21 12:58:06;;;;;;;3.63;0.60;;;;;;;;;;5039711;28;20136;-83
2021/10/21 13:00:39;;;;;;;6.18;0.88;;;;;;;;;;5039560;28;20402;-82
2021/10/21 13:03:06;;;;;;;3.47;0.88;;;;;;;;;;5055786;28;20413;-85
2021/10/21 13:05:32;;;;;;;3.30;0.55;;;;;;;;;;5057494;28;20022;-84
2021/10/21 13:07:58;;;;;;;3.17;0.80;;;;;;;;;;5057235;28;20026;-83
2021/10/21 13:10:25;;;;;;;3.83;0.60;;;;;;;;;;5056938;28;20022;-83
2021/10/21 13:12:51;;;;;;;3.55;0.43;;;;;;;;;;5043169;28;20056;-83
2021/10/21 13:15:17;;;;;;;2.72;0.70;;;;;;;;;;5044051;28;20100;-80
2021/10/21 13:17:44;;;;;;;3.50;0.73;;;;;;;;;;5042629;28;20022;-82
2021/10/21 13:20:10;;;;;;;5.40;0.70;;;;;;;;;;5036716;28;20018;-82
2021/10/21 13:22:36;;;;;;;3.15;0.50;;;;;;;;;;5041547;28;20017;-81
2021/10/21 13:25:05;;;;;;;3.25;0.50;;;;;;;;;;5057999;28;20026;-79
2021/10/21 13:27:31;;;;;;;3.05;0.63;;;;;;;;;;5055608;28;20029;-83
2021/10/21 13:29:57;;;;;;;7.65;1.02;;;;;;;;;;5035434;28;20511;-82
2021/10/21 13:32:23;;;;;;;6.90;0.82;;;;;;;;;;5049313;28;20073;-83
2021/10/21 13:34:49;;;;;;;5.18;0.63;;;;;;;;;;5052967;28;20071;-82
2021/10/21 13:37:15;;;;;;;7.75;0.73;;;;;;;;;;5038005;28;20025;-82
2021/10/21 13:39:43;;;;;;;3.03;0.55;;;;;;;;;;5041499;28;20028;-83
2021/10/21 13:42:10;;;;;;;4.45;0.75;;;;;;;;;;5044282;28;20029;-82
2021/10/21 13:44:36;;;;;;;4.00;0.73;;;;;;;;;;5064073;28;20034;-84
2021/10/21 13:47:03;;;;;;;2.95;0.65;;;;;;;;;;5055424;28;20026;-83
2021/10/21 13:49:29;;;;;;;3.03;0.70;;;;;;;;;;5049878;28;20095;-82
2021/10/21 13:51:55;;;;;;;4.18;0.90;;;;;;;;;;5035224;28;20025;-83
2021/10/21 13:54:21;;;;;;;4.47;0.50;;;;;;;;;;5054394;28;20067;-84
2021/10/21 13:56:50;;;;;;;3.53;0.82;;;;;;;;;;5052848;28;20037;-82
2021/10/21 13:59:16;;;;;;;3.47;0.60;;;;;;;;;;5035968;28;20034;-82
2021/10/21 14:01:43;;;;;;;6.07;1.00;;;;;;;;;;5056142;28;20049;-84
2021/10/21 14:04:10;;;;;;;5.85;0.65;;;;;;;;;;5043679;28;20056;-82
2021/10/21 14:06:36;;;;;;;5.18;0.75;;;;;;;;;;5055645;28;20513;-85
2021/10/21 14:09:03;;;;;;;4.43;0.70;;;;;;;;;;5058966;28;20025;-81
2021/10/21 14:11:31;;;;;;;4.22;0.95;;;;;;;;;;5043702;28;20044;-84
2021/10/21 14:13:59;;;;;;;3.83;0.68;;;;;;;;;;5041961;28;20026;-83
2021/10/21 14:16:25;;;;;;;3.50;0.75;;;;;;;;;;5042299;28;20021;-82
2021/10/21 14:18:51;;;;;;;6.43;1.65;;;;;;;;;;5066510;22;20034;-82
2021/10/21 14:21:18;;;;;;;3.10;0.70;;;;;;;;;;5036644;28;20684;-84
2021/10/21 14:23:44;;;;;;;5.80;0.90;;;;;;;;;;5051453;28;20025;-85
2021/10/21 14:26:11;;;;;;;4.30;0.80;;;;;;;;;;5015142;28;20022;-81
2021/10/21 14:28:37;;;;;;;5.22;0.95;;;;;;;;;;5032336;28;20053;-81
2021/10/21 14:31:03;;;;;;;2.80;0.60;;;;;;;;;;5035750;28;20474;-80
2021/10/21 14:33:29;;;;;;;5.78;0.80;;;;;;;;;;5034580;28;20033;-78
2021/10/21 14:35:55;;;;;;;2.63;0.70;;;;;;;;;;5049358;28;20390;-78
2021/10/21 14:38:21;;;;;;;5.68;0.70;;;;;;;;;;5036195;28;20048;-82
2021/10/21 14:40:47;;;;;;;4.78;0.98;;;;;;;;;;5035396;28;20053;-82
2021/10/21 14:43:14;;;;;;;4.35;0.88;;;;;;;;;;5019702;28;20026;-82